sensor_id;sensor_type;location;lat;lon;timestamp;P1;durP1;ratioP1;P2;durP2;ratioP2
41426;SDS011;27171;51.812;19.514;2022-10-20T00:02:30;8.50;;;4.22;;
41426;SDS011;27171;51.812;19.514;2022-10-20T00:08:33;5.13;;;2.85;;
41426;SDS011;27171;51.812;19.514;2022-10-20T00:11:34;8.05;;;3.88;;
41426;SDS011;27171;51.812;19.514;2022-10-20T00:17:37;6.85;;;3.58;;
41426;SDS011;27171;51.812;19.514;2022-10-20T00:20:38;8.00;;;3.90;;
41426;SDS011;27171;51.812;19.514;2022-10-20T00:23:40;9.73;;;5.18;;
41426;SDS011;27171;51.812;19.514;2022-10-20T00:26:41;8.52;;;4.65;;
41426;SDS011;27171;51.812;19.514;2022-10-20T00:29:42;13.07;;;5.40;;
41426;SDS011;27171;51.812;19.514;2022-10-20T00:32:45;9.60;;;5.13;;
41426;SDS011;27171;51.812;19.514;2022-10-20T00:35:47;8.02;;;4.85;;
41426;SDS011;27171;51.812;19.514;2022-10-20T00:38:48;9.30;;;4.85;;
41426;SDS011;27171;51.812;19.514;2022-10-20T00:41:50;9.88;;;5.78;;
41426;SDS011;27171;51.812;19.514;2022-10-20T00:44:55;7.68;;;4.85;;
41426;SDS011;27171;51.812;19.514;2022-10-20T00:47:59;11.25;;;5.55;;
41426;SDS011;27171;51.812;19.514;2022-10-20T00:51:27;8.70;;;4.93;;
41426;SDS011;27171;51.812;19.514;2022-10-20T00:54:30;8.60;;;5.55;;
41426;SDS011;27171;51.812;19.514;2022-10-20T00:57:31;10.63;;;5.72;;
41426;SDS011;27171;51.812;19.514;2022-10-20T01:00:33;8.93;;;6.18;;
41426;SDS011;27171;51.812;19.514;2022-10-20T01:03:44;10.30;;;6.13;;
41426;SDS011;27171;51.812;19.514;2022-10-20T01:06:48;11.35;;;6.10;;
41426;SDS011;27171;51.812;19.514;2022-10-20T01:09:49;9.98;;;5.00;;
41426;SDS011;27171;51.812;19.514;2022-10-20T01:12:52;11.00;;;6.35;;
41426;SDS011;27171;51.812;19.514;2022-10-20T01:16:11;9.15;;;5.45;;
41426;SDS011;27171;51.812;19.514;2022-10-20T01:23:06;7.88;;;4.50;;
41426;SDS011;27171;51.812;19.514;2022-10-20T01:29:52;8.82;;;4.43;;
41426;SDS011;27171;51.812;19.514;2022-10-20T01:36:20;6.70;;;3.85;;
41426;SDS011;27171;51.812;19.514;2022-10-20T01:42:34;7.38;;;4.10;;
41426;SDS011;27171;51.812;19.514;2022-10-20T01:45:38;7.15;;;4.20;;
41426;SDS011;27171;51.812;19.514;2022-10-20T01:48:43;5.95;;;3.60;;
41426;SDS011;27171;51.812;19.514;2022-10-20T01:51:46;7.10;;;4.20;;
41426;SDS011;27171;51.812;19.514;2022-10-20T01:54:47;6.97;;;4.70;;
41426;SDS011;27171;51.812;19.514;2022-10-20T02:11:27;8.68;;;4.85;;
41426;SDS011;27171;51.812;19.514;2022-10-20T02:14:30;8.20;;;4.75;;
41426;SDS011;27171;51.812;19.514;2022-10-20T02:17:31;6.70;;;4.28;;
41426;SDS011;27171;51.812;19.514;2022-10-20T02:20:36;9.05;;;3.67;;
41426;SDS011;27171;51.812;19.514;2022-10-20T02:23:43;9.48;;;4.35;;
41426;SDS011;27171;51.812;19.514;2022-10-20T02:26:46;6.65;;;3.85;;
41426;SDS011;27171;51.812;19.514;2022-10-20T02:29:59;8.07;;;4.65;;
41426;SDS011;27171;51.812;19.514;2022-10-20T02:33:05;7.53;;;3.72;;
41426;SDS011;27171;51.812;19.514;2022-10-20T02:36:11;7.78;;;3.83;;
41426;SDS011;27171;51.812;19.514;2022-10-20T02:39:15;5.68;;;3.63;;
41426;SDS011;27171;51.812;19.514;2022-10-20T02:42:16;9.18;;;4.20;;
41426;SDS011;27171;51.812;19.514;2022-10-20T02:45:18;6.05;;;3.63;;
41426;SDS011;27171;51.812;19.514;2022-10-20T02:48:19;6.50;;;4.10;;
41426;SDS011;27171;51.812;19.514;2022-10-20T02:51:20;8.25;;;4.18;;
41426;SDS011;27171;51.812;19.514;2022-10-20T02:54:21;7.82;;;4.38;;
41426;SDS011;27171;51.812;19.514;2022-10-20T02:57:23;8.88;;;3.92;;
41426;SDS011;27171;51.812;19.514;2022-10-20T03:00:24;6.35;;;4.20;;
41426;SDS011;27171;51.812;19.514;2022-10-20T03:03:25;7.05;;;3.80;;
41426;SDS011;27171;51.812;19.514;2022-10-20T03:06:26;7.45;;;4.05;;
41426;SDS011;27171;51.812;19.514;2022-10-20T03:09:27;5.85;;;3.10;;
41426;SDS011;27171;51.812;19.514;2022-10-20T03:15:29;6.18;;;2.88;;
41426;SDS011;27171;51.812;19.514;2022-10-20T03:18:31;7.57;;;3.50;;
41426;SDS011;27171;51.812;19.514;2022-10-20T03:24:33;6.43;;;3.40;;
41426;SDS011;27171;51.812;19.514;2022-10-20T03:30:35;6.68;;;3.60;;
41426;SDS011;27171;51.812;19.514;2022-10-20T03:33:36;6.05;;;3.60;;
41426;SDS011;27171;51.812;19.514;2022-10-20T03:39:39;6.18;;;3.17;;
41426;SDS011;27171;51.812;19.514;2022-10-20T03:42:40;6.30;;;3.55;;
41426;SDS011;27171;51.812;19.514;2022-10-20T03:48:43;7.13;;;3.53;;
41426;SDS011;27171;51.812;19.514;2022-10-20T03:51:44;7.32;;;3.58;;
41426;SDS011;27171;51.812;19.514;2022-10-20T03:54:45;4.97;;;3.33;;
41426;SDS011;27171;51.812;19.514;2022-10-20T03:57:46;8.85;;;3.90;;
41426;SDS011;27171;51.812;19.514;2022-10-20T04:00:47;8.65;;;3.92;;
41426;SDS011;27171;51.812;19.514;2022-10-20T04:03:48;7.47;;;4.60;;
41426;SDS011;27171;51.812;19.514;2022-10-20T04:06:50;7.53;;;4.20;;
41426;SDS011;27171;51.812;19.514;2022-10-20T04:09:51;6.07;;;3.58;;
41426;SDS011;27171;51.812;19.514;2022-10-20T04:12:52;7.78;;;4.22;;
41426;SDS011;27171;51.812;19.514;2022-10-20T04:15:56;6.22;;;3.63;;
41426;SDS011;27171;51.812;19.514;2022-10-20T04:18:57;7.05;;;4.15;;
41426;SDS011;27171;51.812;19.514;2022-10-20T04:21:59;6.25;;;3.58;;
41426;SDS011;27171;51.812;19.514;2022-10-20T04:25:00;6.10;;;3.85;;
41426;SDS011;27171;51.812;19.514;2022-10-20T04:28:01;6.18;;;3.55;;
41426;SDS011;27171;51.812;19.514;2022-10-20T04:31:02;6.85;;;4.03;;
41426;SDS011;27171;51.812;19.514;2022-10-20T04:34:04;7.88;;;4.15;;
41426;SDS011;27171;51.812;19.514;2022-10-20T04:37:05;5.93;;;3.83;;
41426;SDS011;27171;51.812;19.514;2022-10-20T04:40:07;5.72;;;3.55;;
41426;SDS011;27171;51.812;19.514;2022-10-20T04:43:08;6.38;;;4.18;;
41426;SDS011;27171;51.812;19.514;2022-10-20T04:49:10;4.60;;;3.38;;
41426;SDS011;27171;51.812;19.514;2022-10-20T04:52:11;6.80;;;3.30;;
41426;SDS011;27171;51.812;19.514;2022-10-20T04:55:12;8.85;;;4.57;;
41426;SDS011;27171;51.812;19.514;2022-10-20T04:58:14;5.72;;;3.97;;
41426;SDS011;27171;51.812;19.514;2022-10-20T05:01:15;7.50;;;3.90;;
41426;SDS011;27171;51.812;19.514;2022-10-20T05:04:17;5.90;;;3.90;;
41426;SDS011;27171;51.812;19.514;2022-10-20T05:07:18;7.88;;;3.95;;
41426;SDS011;27171;51.812;19.514;2022-10-20T05:10:19;8.30;;;4.80;;
41426;SDS011;27171;51.812;19.514;2022-10-20T05:13:20;8.13;;;4.40;;
41426;SDS011;27171;51.812;19.514;2022-10-20T05:16:22;9.60;;;5.00;;
41426;SDS011;27171;51.812;19.514;2022-10-20T05:19:23;8.90;;;5.30;;
41426;SDS011;27171;51.812;19.514;2022-10-20T05:22:24;7.25;;;4.18;;
41426;SDS011;27171;51.812;19.514;2022-10-20T05:25:25;7.40;;;4.30;;
41426;SDS011;27171;51.812;19.514;2022-10-20T05:28:26;8.95;;;4.85;;
41426;SDS011;27171;51.812;19.514;2022-10-20T05:34:29;6.65;;;3.72;;
41426;SDS011;27171;51.812;19.514;2022-10-20T05:37:30;6.30;;;3.75;;
41426;SDS011;27171;51.812;19.514;2022-10-20T05:43:32;6.75;;;4.07;;
41426;SDS011;27171;51.812;19.514;2022-10-20T05:46:34;6.78;;;4.95;;
41426;SDS011;27171;51.812;19.514;2022-10-20T05:49:36;7.47;;;4.90;;
41426;SDS011;27171;51.812;19.514;2022-10-20T05:52:37;8.43;;;5.07;;
41426;SDS011;27171;51.812;19.514;2022-10-20T05:58:39;10.07;;;4.82;;
41426;SDS011;27171;51.812;19.514;2022-10-20T06:01:41;10.77;;;5.53;;
41426;SDS011;27171;51.812;19.514;2022-10-20T06:04:42;11.05;;;6.47;;
41426;SDS011;27171;51.812;19.514;2022-10-20T06:07:43;11.25;;;6.07;;
41426;SDS011;27171;51.812;19.514;2022-10-20T06:10:44;11.52;;;7.25;;
41426;SDS011;27171;51.812;19.514;2022-10-20T06:13:45;9.23;;;6.75;;
41426;SDS011;27171;51.812;19.514;2022-10-20T06:16:50;10.23;;;6.10;;
41426;SDS011;27171;51.812;19.514;2022-10-20T06:19:52;12.40;;;6.07;;
41426;SDS011;27171;51.812;19.514;2022-10-20T06:22:53;10.27;;;6.00;;
41426;SDS011;27171;51.812;19.514;2022-10-20T06:25:56;9.45;;;6.22;;
41426;SDS011;27171;51.812;19.514;2022-10-20T06:32:10;8.35;;;5.18;;
41426;SDS011;27171;51.812;19.514;2022-10-20T06:35:11;9.77;;;5.78;;
41426;SDS011;27171;51.812;19.514;2022-10-20T06:41:14;9.77;;;5.15;;
41426;SDS011;27171;51.812;19.514;2022-10-20T06:44:17;16.35;;;8.00;;
41426;SDS011;27171;51.812;19.514;2022-10-20T06:47:20;12.27;;;7.78;;
41426;SDS011;27171;51.812;19.514;2022-10-20T06:50:21;11.05;;;7.35;;
41426;SDS011;27171;51.812;19.514;2022-10-20T06:53:22;16.58;;;9.52;;
41426;SDS011;27171;51.812;19.514;2022-10-20T06:56:24;16.58;;;8.15;;
41426;SDS011;27171;51.812;19.514;2022-10-20T06:59:26;22.17;;;10.07;;
41426;SDS011;27171;51.812;19.514;2022-10-20T07:02:27;19.85;;;10.25;;
41426;SDS011;27171;51.812;19.514;2022-10-20T07:05:29;27.10;;;11.88;;
41426;SDS011;27171;51.812;19.514;2022-10-20T07:08:30;33.95;;;14.32;;
41426;SDS011;27171;51.812;19.514;2022-10-20T07:11:33;34.22;;;13.23;;
41426;SDS011;27171;51.812;19.514;2022-10-20T07:14:35;36.63;;;15.10;;
41426;SDS011;27171;51.812;19.514;2022-10-20T07:17:36;31.08;;;12.93;;
41426;SDS011;27171;51.812;19.514;2022-10-20T07:23:38;10.65;;;7.00;;
41426;SDS011;27171;51.812;19.514;2022-10-20T07:26:40;9.40;;;6.28;;
41426;SDS011;27171;51.812;19.514;2022-10-20T07:29:41;5.47;;;4.30;;
41426;SDS011;27171;51.812;19.514;2022-10-20T07:35:43;3.90;;;2.05;;
41426;SDS011;27171;51.812;19.514;2022-10-20T07:38:45;3.42;;;1.90;;
41426;SDS011;27171;51.812;19.514;2022-10-20T07:41:47;3.30;;;1.40;;
41426;SDS011;27171;51.812;19.514;2022-10-20T07:44:48;5.22;;;1.48;;
41426;SDS011;27171;51.812;19.514;2022-10-20T07:47:49;4.07;;;1.55;;
41426;SDS011;27171;51.812;19.514;2022-10-20T07:50:51;2.60;;;1.02;;
41426;SDS011;27171;51.812;19.514;2022-10-20T07:53:53;4.15;;;1.00;;
41426;SDS011;27171;51.812;19.514;2022-10-20T07:56:56;3.40;;;0.68;;
41426;SDS011;27171;51.812;19.514;2022-10-20T07:59:57;2.42;;;0.50;;
41426;SDS011;27171;51.812;19.514;2022-10-20T08:05:59;3.08;;;0.80;;
41426;SDS011;27171;51.812;19.514;2022-10-20T08:09:02;1.75;;;0.40;;
41426;SDS011;27171;51.812;19.514;2022-10-20T08:12:03;1.65;;;0.30;;
41426;SDS011;27171;51.812;19.514;2022-10-20T08:15:05;1.80;;;0.30;;
41426;SDS011;27171;51.812;19.514;2022-10-20T08:18:06;1.33;;;0.60;;
41426;SDS011;27171;51.812;19.514;2022-10-20T08:21:17;2.28;;;0.30;;
41426;SDS011;27171;51.812;19.514;2022-10-20T08:24:19;1.80;;;0.52;;
41426;SDS011;27171;51.812;19.514;2022-10-20T08:27:21;1.50;;;0.32;;
41426;SDS011;27171;51.812;19.514;2022-10-20T08:30:22;3.35;;;0.50;;
41426;SDS011;27171;51.812;19.514;2022-10-20T08:33:24;2.90;;;0.50;;
41426;SDS011;27171;51.812;19.514;2022-10-20T08:36:25;2.03;;;0.50;;
41426;SDS011;27171;51.812;19.514;2022-10-20T08:39:26;1.35;;;0.35;;
41426;SDS011;27171;51.812;19.514;2022-10-20T08:42:28;2.10;;;0.50;;
41426;SDS011;27171;51.812;19.514;2022-10-20T08:45:29;1.90;;;0.45;;
41426;SDS011;27171;51.812;19.514;2022-10-20T08:48:31;2.13;;;0.60;;
41426;SDS011;27171;51.812;19.514;2022-10-20T08:51:34;1.95;;;0.60;;
41426;SDS011;27171;51.812;19.514;2022-10-20T08:54:36;1.67;;;0.43;;
41426;SDS011;27171;51.812;19.514;2022-10-20T08:57:37;1.65;;;0.40;;
41426;SDS011;27171;51.812;19.514;2022-10-20T09:00:38;1.17;;;0.28;;
41426;SDS011;27171;51.812;19.514;2022-10-20T09:03:40;2.40;;;0.50;;
41426;SDS011;27171;51.812;19.514;2022-10-20T09:06:42;4.00;;;0.60;;
41426;SDS011;27171;51.812;19.514;2022-10-20T09:09:46;1.10;;;0.40;;
41426;SDS011;27171;51.812;19.514;2022-10-20T09:12:47;2.92;;;0.50;;
41426;SDS011;27171;51.812;19.514;2022-10-20T09:15:50;2.35;;;0.57;;
41426;SDS011;27171;51.812;19.514;2022-10-20T09:18:56;3.05;;;1.00;;
41426;SDS011;27171;51.812;19.514;2022-10-20T09:22:01;2.58;;;0.60;;
41426;SDS011;27171;51.812;19.514;2022-10-20T09:25:05;2.28;;;0.50;;
41426;SDS011;27171;51.812;19.514;2022-10-20T09:28:16;2.08;;;0.50;;
41426;SDS011;27171;51.812;19.514;2022-10-20T09:31:23;1.23;;;0.32;;
41426;SDS011;27171;51.812;19.514;2022-10-20T09:34:47;2.30;;;0.50;;
41426;SDS011;27171;51.812;19.514;2022-10-20T09:41:14;1.10;;;0.40;;
41426;SDS011;27171;51.812;19.514;2022-10-20T09:44:19;1.95;;;0.50;;
41426;SDS011;27171;51.812;19.514;2022-10-20T09:53:32;2.70;;;0.52;;
41426;SDS011;27171;51.812;19.514;2022-10-20T09:56:39;3.65;;;0.65;;
41426;SDS011;27171;51.812;19.514;2022-10-20T09:59:43;2.38;;;0.90;;
41426;SDS011;27171;51.812;19.514;2022-10-20T10:02:45;4.75;;;1.77;;
41426;SDS011;27171;51.812;19.514;2022-10-20T10:05:48;3.90;;;1.80;;
41426;SDS011;27171;51.812;19.514;2022-10-20T10:08:51;3.72;;;1.60;;
41426;SDS011;27171;51.812;19.514;2022-10-20T10:11:57;2.90;;;1.60;;
41426;SDS011;27171;51.812;19.514;2022-10-20T10:15:03;2.75;;;1.38;;
41426;SDS011;27171;51.812;19.514;2022-10-20T10:18:10;3.40;;;1.60;;
41426;SDS011;27171;51.812;19.514;2022-10-20T10:21:14;3.92;;;2.00;;
41426;SDS011;27171;51.812;19.514;2022-10-20T10:37:41;4.18;;;1.38;;
41426;SDS011;27171;51.812;19.514;2022-10-20T10:51:03;2.15;;;0.70;;
41426;SDS011;27171;51.812;19.514;2022-10-20T11:11:15;3.87;;;1.03;;
41426;SDS011;27171;51.812;19.514;2022-10-20T11:27:19;2.15;;;0.43;;
41426;SDS011;27171;51.812;19.514;2022-10-20T11:30:25;2.38;;;0.50;;
41426;SDS011;27171;51.812;19.514;2022-10-20T11:33:29;1.83;;;0.40;;
41426;SDS011;27171;51.812;19.514;2022-10-20T11:36:40;2.53;;;0.65;;
41426;SDS011;27171;51.812;19.514;2022-10-20T11:46:02;1.88;;;0.65;;
41426;SDS011;27171;51.812;19.514;2022-10-20T11:49:15;4.25;;;0.80;;
41426;SDS011;27171;51.812;19.514;2022-10-20T12:19:43;2.20;;;0.98;;
41426;SDS011;27171;51.812;19.514;2022-10-20T12:22:49;3.10;;;0.43;;
41426;SDS011;27171;51.812;19.514;2022-10-20T12:25:52;2.95;;;0.70;;
41426;SDS011;27171;51.812;19.514;2022-10-20T12:28:53;1.77;;;0.55;;
41426;SDS011;27171;51.812;19.514;2022-10-20T12:35:28;3.20;;;0.65;;
41426;SDS011;27171;51.812;19.514;2022-10-20T12:38:30;1.17;;;0.47;;
41426;SDS011;27171;51.812;19.514;2022-10-20T12:41:33;3.00;;;0.60;;
41426;SDS011;27171;51.812;19.514;2022-10-20T12:44:42;1.77;;;0.57;;
41426;SDS011;27171;51.812;19.514;2022-10-20T12:47:52;2.28;;;0.77;;
41426;SDS011;27171;51.812;19.514;2022-10-20T12:51:02;2.42;;;0.80;;
41426;SDS011;27171;51.812;19.514;2022-10-20T12:57:26;1.80;;;0.70;;
41426;SDS011;27171;51.812;19.514;2022-10-20T13:06:51;2.65;;;0.50;;
41426;SDS011;27171;51.812;19.514;2022-10-20T13:09:55;1.73;;;0.52;;
41426;SDS011;27171;51.812;19.514;2022-10-20T13:16:03;2.70;;;0.68;;
41426;SDS011;27171;51.812;19.514;2022-10-20T13:19:21;3.00;;;0.82;;
41426;SDS011;27171;51.812;19.514;2022-10-20T13:25:38;1.52;;;0.50;;
41426;SDS011;27171;51.812;19.514;2022-10-20T13:28:49;2.33;;;0.40;;
41426;SDS011;27171;51.812;19.514;2022-10-20T13:38:34;2.15;;;0.68;;
41426;SDS011;27171;51.812;19.514;2022-10-20T13:51:49;1.73;;;0.47;;
41426;SDS011;27171;51.812;19.514;2022-10-20T13:54:54;1.63;;;0.43;;
41426;SDS011;27171;51.812;19.514;2022-10-20T13:58:03;2.17;;;0.50;;
41426;SDS011;27171;51.812;19.514;2022-10-20T14:04:45;2.20;;;0.73;;
41426;SDS011;27171;51.812;19.514;2022-10-20T14:07:42;1.65;;;0.50;;
41426;SDS011;27171;51.812;19.514;2022-10-20T14:10:48;2.33;;;0.50;;
41426;SDS011;27171;51.812;19.514;2022-10-20T14:13:58;1.80;;;0.30;;
41426;SDS011;27171;51.812;19.514;2022-10-20T14:17:05;1.85;;;0.50;;
41426;SDS011;27171;51.812;19.514;2022-10-20T14:20:08;3.55;;;0.70;;
41426;SDS011;27171;51.812;19.514;2022-10-20T14:23:19;1.98;;;0.40;;
41426;SDS011;27171;51.812;19.514;2022-10-20T14:26:21;3.05;;;0.63;;
41426;SDS011;27171;51.812;19.514;2022-10-20T14:29:24;3.08;;;0.63;;
41426;SDS011;27171;51.812;19.514;2022-10-20T14:32:29;2.03;;;0.70;;
41426;SDS011;27171;51.812;19.514;2022-10-20T14:35:42;2.35;;;0.80;;
41426;SDS011;27171;51.812;19.514;2022-10-20T14:38:55;4.03;;;0.70;;
41426;SDS011;27171;51.812;19.514;2022-10-20T14:41:58;1.88;;;0.65;;
41426;SDS011;27171;51.812;19.514;2022-10-20T14:45:02;1.65;;;0.60;;
41426;SDS011;27171;51.812;19.514;2022-10-20T14:48:04;1.75;;;0.60;;
41426;SDS011;27171;51.812;19.514;2022-10-20T14:54:38;1.38;;;0.50;;
41426;SDS011;27171;51.812;19.514;2022-10-20T14:57:42;2.60;;;0.52;;
41426;SDS011;27171;51.812;19.514;2022-10-20T15:00:44;2.60;;;1.05;;
41426;SDS011;27171;51.812;19.514;2022-10-20T15:03:45;2.67;;;0.90;;
41426;SDS011;27171;51.812;19.514;2022-10-20T15:06:47;2.80;;;0.77;;
41426;SDS011;27171;51.812;19.514;2022-10-20T15:09:50;1.63;;;0.52;;
41426;SDS011;27171;51.812;19.514;2022-10-20T15:12:57;2.25;;;0.88;;
41426;SDS011;27171;51.812;19.514;2022-10-20T15:15:59;3.88;;;0.93;;
41426;SDS011;27171;51.812;19.514;2022-10-20T15:22:36;3.67;;;1.35;;
41426;SDS011;27171;51.812;19.514;2022-10-20T15:28:54;4.22;;;1.00;;
41426;SDS011;27171;51.812;19.514;2022-10-20T15:31:55;3.35;;;0.80;;
41426;SDS011;27171;51.812;19.514;2022-10-20T15:34:56;2.60;;;0.95;;
41426;SDS011;27171;51.812;19.514;2022-10-20T15:37:57;2.60;;;0.98;;
41426;SDS011;27171;51.812;19.514;2022-10-20T15:40:59;4.05;;;1.10;;
41426;SDS011;27171;51.812;19.514;2022-10-20T15:47:17;4.30;;;1.60;;
41426;SDS011;27171;51.812;19.514;2022-10-20T15:50:18;4.78;;;1.67;;
41426;SDS011;27171;51.812;19.514;2022-10-20T15:53:19;3.63;;;1.90;;
41426;SDS011;27171;51.812;19.514;2022-10-20T15:56:20;3.13;;;1.52;;
41426;SDS011;27171;51.812;19.514;2022-10-20T15:59:22;3.22;;;1.27;;
41426;SDS011;27171;51.812;19.514;2022-10-20T16:02:23;2.72;;;1.20;;
41426;SDS011;27171;51.812;19.514;2022-10-20T16:05:24;3.30;;;1.40;;
41426;SDS011;27171;51.812;19.514;2022-10-20T16:08:26;3.88;;;1.55;;
41426;SDS011;27171;51.812;19.514;2022-10-20T16:11:27;3.35;;;2.00;;
41426;SDS011;27171;51.812;19.514;2022-10-20T16:14:28;5.03;;;2.50;;
41426;SDS011;27171;51.812;19.514;2022-10-20T16:17:29;6.15;;;3.38;;
41426;SDS011;27171;51.812;19.514;2022-10-20T16:20:30;6.15;;;3.72;;
41426;SDS011;27171;51.812;19.514;2022-10-20T16:23:35;10.10;;;4.68;;
41426;SDS011;27171;51.812;19.514;2022-10-20T16:26:37;7.40;;;4.22;;
41426;SDS011;27171;51.812;19.514;2022-10-20T16:29:38;5.53;;;3.47;;
41426;SDS011;27171;51.812;19.514;2022-10-20T16:32:39;6.57;;;4.22;;
41426;SDS011;27171;51.812;19.514;2022-10-20T16:35:41;7.95;;;3.90;;
41426;SDS011;27171;51.812;19.514;2022-10-20T16:38:43;5.18;;;3.75;;
41426;SDS011;27171;51.812;19.514;2022-10-20T16:41:45;5.95;;;4.18;;
41426;SDS011;27171;51.812;19.514;2022-10-20T16:44:46;6.78;;;3.75;;
41426;SDS011;27171;51.812;19.514;2022-10-20T16:47:47;8.20;;;3.60;;
41426;SDS011;27171;51.812;19.514;2022-10-20T16:53:49;5.43;;;3.08;;
41426;SDS011;27171;51.812;19.514;2022-10-20T16:56:50;6.90;;;4.63;;
41426;SDS011;27171;51.812;19.514;2022-10-20T16:59:51;6.97;;;4.50;;
41426;SDS011;27171;51.812;19.514;2022-10-20T17:05:57;7.90;;;4.57;;
41426;SDS011;27171;51.812;19.514;2022-10-20T17:09:00;9.02;;;5.05;;
41426;SDS011;27171;51.812;19.514;2022-10-20T17:12:01;9.52;;;5.53;;
41426;SDS011;27171;51.812;19.514;2022-10-20T17:15:03;9.80;;;6.68;;
41426;SDS011;27171;51.812;19.514;2022-10-20T17:18:04;11.27;;;7.03;;
41426;SDS011;27171;51.812;19.514;2022-10-20T17:24:10;9.45;;;5.78;;
41426;SDS011;27171;51.812;19.514;2022-10-20T17:27:12;10.27;;;5.85;;
41426;SDS011;27171;51.812;19.514;2022-10-20T17:30:14;10.57;;;5.78;;
41426;SDS011;27171;51.812;19.514;2022-10-20T17:33:15;11.35;;;6.32;;
41426;SDS011;27171;51.812;19.514;2022-10-20T17:36:16;9.25;;;6.30;;
41426;SDS011;27171;51.812;19.514;2022-10-20T17:39:18;10.63;;;6.05;;
41426;SDS011;27171;51.812;19.514;2022-10-20T17:42:19;10.65;;;6.97;;
41426;SDS011;27171;51.812;19.514;2022-10-20T17:45:21;12.02;;;7.22;;
41426;SDS011;27171;51.812;19.514;2022-10-20T17:48:22;10.20;;;7.53;;
41426;SDS011;27171;51.812;19.514;2022-10-20T17:51:24;15.18;;;9.20;;
41426;SDS011;27171;51.812;19.514;2022-10-20T17:54:25;15.70;;;8.63;;
41426;SDS011;27171;51.812;19.514;2022-10-20T18:00:31;11.27;;;7.18;;
41426;SDS011;27171;51.812;19.514;2022-10-20T18:03:32;9.68;;;5.65;;
41426;SDS011;27171;51.812;19.514;2022-10-20T18:06:33;9.93;;;6.28;;
41426;SDS011;27171;51.812;19.514;2022-10-20T18:09:35;10.65;;;6.70;;
41426;SDS011;27171;51.812;19.514;2022-10-20T18:15:41;8.35;;;5.22;;
41426;SDS011;27171;51.812;19.514;2022-10-20T18:18:43;10.27;;;6.65;;
41426;SDS011;27171;51.812;19.514;2022-10-20T18:21:44;13.02;;;7.40;;
41426;SDS011;27171;51.812;19.514;2022-10-20T18:24:47;14.18;;;9.05;;
41426;SDS011;27171;51.812;19.514;2022-10-20T18:27:48;19.60;;;13.23;;
41426;SDS011;27171;51.812;19.514;2022-10-20T18:30:50;22.13;;;14.77;;
41426;SDS011;27171;51.812;19.514;2022-10-20T18:33:53;19.55;;;13.85;;
41426;SDS011;27171;51.812;19.514;2022-10-20T18:36:56;21.35;;;13.77;;
41426;SDS011;27171;51.812;19.514;2022-10-20T18:46:00;15.15;;;9.07;;
41426;SDS011;27171;51.812;19.514;2022-10-20T18:49:03;11.95;;;7.97;;
41426;SDS011;27171;51.812;19.514;2022-10-20T18:52:05;13.75;;;7.38;;
41426;SDS011;27171;51.812;19.514;2022-10-20T18:55:07;10.60;;;6.43;;
41426;SDS011;27171;51.812;19.514;2022-10-20T18:58:08;11.88;;;6.80;;
41426;SDS011;27171;51.812;19.514;2022-10-20T19:01:10;10.70;;;7.20;;
41426;SDS011;27171;51.812;19.514;2022-10-20T19:04:13;13.80;;;8.20;;
41426;SDS011;27171;51.812;19.514;2022-10-20T19:07:14;12.45;;;7.68;;
41426;SDS011;27171;51.812;19.514;2022-10-20T19:10:16;13.63;;;8.52;;
41426;SDS011;27171;51.812;19.514;2022-10-20T19:13:17;15.32;;;8.98;;
41426;SDS011;27171;51.812;19.514;2022-10-20T19:16:19;15.65;;;8.43;;
41426;SDS011;27171;51.812;19.514;2022-10-20T19:19:22;13.15;;;7.50;;
41426;SDS011;27171;51.812;19.514;2022-10-20T19:22:23;15.98;;;8.45;;
41426;SDS011;27171;51.812;19.514;2022-10-20T19:25:24;17.10;;;10.27;;
41426;SDS011;27171;51.812;19.514;2022-10-20T19:28:25;18.30;;;10.15;;
41426;SDS011;27171;51.812;19.514;2022-10-20T19:31:28;18.35;;;10.70;;
41426;SDS011;27171;51.812;19.514;2022-10-20T19:34:36;17.92;;;9.75;;
41426;SDS011;27171;51.812;19.514;2022-10-20T19:37:39;15.38;;;8.65;;
41426;SDS011;27171;51.812;19.514;2022-10-20T19:40:40;15.73;;;9.27;;
41426;SDS011;27171;51.812;19.514;2022-10-20T19:43:42;16.42;;;9.65;;
41426;SDS011;27171;51.812;19.514;2022-10-20T19:46:44;14.00;;;8.30;;
41426;SDS011;27171;51.812;19.514;2022-10-20T19:49:46;13.32;;;7.88;;
41426;SDS011;27171;51.812;19.514;2022-10-20T19:52:47;14.88;;;9.10;;
41426;SDS011;27171;51.812;19.514;2022-10-20T19:55:48;16.45;;;9.20;;
41426;SDS011;27171;51.812;19.514;2022-10-20T19:58:50;15.30;;;9.55;;
41426;SDS011;27171;51.812;19.514;2022-10-20T20:01:52;13.10;;;8.73;;
41426;SDS011;27171;51.812;19.514;2022-10-20T20:04:54;15.80;;;10.43;;
41426;SDS011;27171;51.812;19.514;2022-10-20T20:07:55;19.42;;;13.00;;
41426;SDS011;27171;51.812;19.514;2022-10-20T20:10:57;19.42;;;11.73;;
41426;SDS011;27171;51.812;19.514;2022-10-20T20:14:09;16.38;;;10.05;;
41426;SDS011;27171;51.812;19.514;2022-10-20T20:17:14;17.60;;;10.27;;
41426;SDS011;27171;51.812;19.514;2022-10-20T20:20:16;15.68;;;9.57;;
41426;SDS011;27171;51.812;19.514;2022-10-20T20:23:17;15.55;;;10.50;;
41426;SDS011;27171;51.812;19.514;2022-10-20T20:29:19;18.17;;;10.13;;
41426;SDS011;27171;51.812;19.514;2022-10-20T20:35:21;12.55;;;8.88;;
41426;SDS011;27171;51.812;19.514;2022-10-20T20:41:24;17.08;;;10.60;;
41426;SDS011;27171;51.812;19.514;2022-10-20T20:44:27;19.10;;;11.55;;
41426;SDS011;27171;51.812;19.514;2022-10-20T20:47:31;18.55;;;11.27;;
41426;SDS011;27171;51.812;19.514;2022-10-20T20:50:32;18.17;;;11.07;;
41426;SDS011;27171;51.812;19.514;2022-10-20T20:53:34;17.52;;;11.82;;
41426;SDS011;27171;51.812;19.514;2022-10-20T20:56:36;20.38;;;13.18;;
41426;SDS011;27171;51.812;19.514;2022-10-20T20:59:37;20.15;;;12.77;;
41426;SDS011;27171;51.812;19.514;2022-10-20T21:02:41;22.40;;;13.93;;
41426;SDS011;27171;51.812;19.514;2022-10-20T21:05:43;19.98;;;12.80;;
41426;SDS011;27171;51.812;19.514;2022-10-20T21:08:45;17.90;;;11.85;;
41426;SDS011;27171;51.812;19.514;2022-10-20T21:11:47;16.80;;;11.25;;
41426;SDS011;27171;51.812;19.514;2022-10-20T21:14:48;20.77;;;13.73;;
41426;SDS011;27171;51.812;19.514;2022-10-20T21:17:49;22.70;;;14.80;;
41426;SDS011;27171;51.812;19.514;2022-10-20T21:20:51;17.70;;;12.18;;
41426;SDS011;27171;51.812;19.514;2022-10-20T21:23:52;19.02;;;12.80;;
41426;SDS011;27171;51.812;19.514;2022-10-20T21:26:54;23.83;;;15.20;;
41426;SDS011;27171;51.812;19.514;2022-10-20T21:32:56;17.20;;;11.75;;
41426;SDS011;27171;51.812;19.514;2022-10-20T21:36:04;19.15;;;12.38;;
41426;SDS011;27171;51.812;19.514;2022-10-20T21:39:09;16.80;;;11.90;;
41426;SDS011;27171;51.812;19.514;2022-10-20T21:42:12;17.40;;;12.15;;
41426;SDS011;27171;51.812;19.514;2022-10-20T21:45:13;17.90;;;11.57;;
41426;SDS011;27171;51.812;19.514;2022-10-20T21:48:14;16.63;;;12.07;;
41426;SDS011;27171;51.812;19.514;2022-10-20T21:54:27;16.73;;;11.23;;
41426;SDS011;27171;51.812;19.514;2022-10-20T21:57:28;21.45;;;13.32;;
41426;SDS011;27171;51.812;19.514;2022-10-20T22:00:30;18.25;;;11.65;;
41426;SDS011;27171;51.812;19.514;2022-10-20T22:06:32;17.55;;;11.82;;
41426;SDS011;27171;51.812;19.514;2022-10-20T22:09:33;21.58;;;13.27;;
41426;SDS011;27171;51.812;19.514;2022-10-20T22:12:34;20.55;;;11.48;;
41426;SDS011;27171;51.812;19.514;2022-10-20T22:15:36;19.77;;;11.63;;
41426;SDS011;27171;51.812;19.514;2022-10-20T22:18:38;15.75;;;10.65;;
41426;SDS011;27171;51.812;19.514;2022-10-20T22:21:40;17.02;;;10.52;;
41426;SDS011;27171;51.812;19.514;2022-10-20T22:24:43;18.17;;;12.32;;